sensor_id;sensor_type;location;lat;lon;timestamp;pressure;altitude;pressure_sealevel;temperature;humidity
78741;BME280;68062;48.726;9.370;2024-02-26T00:02:11;96849.53;;;6.90;72.88
78741;BME280;68062;48.726;9.370;2024-02-26T00:04:39;96862.97;;;7.01;71.00
78741;BME280;68062;48.726;9.370;2024-02-26T00:07:07;96855.44;;;6.94;71.63
78741;BME280;68062;48.726;9.370;2024-02-26T00:09:35;96849.59;;;6.87;73.07
78741;BME280;68062;48.726;9.370;2024-02-26T00:12:04;96855.41;;;6.95;72.38
78741;BME280;68062;48.726;9.370;2024-02-26T00:14:33;96850.28;;;6.95;72.00
78741;BME280;68062;48.726;9.370;2024-02-26T00:17:01;96854.78;;;6.82;73.17
78741;BME280;68062;48.726;9.370;2024-02-26T00:19:30;96855.72;;;6.78;73.69
78741;BME280;68062;48.726;9.370;2024-02-26T00:21:58;96854.75;;;6.84;73.18
78741;BME280;68062;48.726;9.370;2024-02-26T00:24:25;96837.13;;;6.70;73.66
78741;BME280;68062;48.726;9.370;2024-02-26T00:26:53;96845.81;;;6.59;75.00
78741;BME280;68062;48.726;9.370;2024-02-26T00:29:21;96842.63;;;6.46;76.24
78741;BME280;68062;48.726;9.370;2024-02-26T00:31:51;96849.53;;;6.40;77.17
78741;BME280;68062;48.726;9.370;2024-02-26T00:34:19;96848.75;;;6.36;78.32
78741;BME280;68062;48.726;9.370;2024-02-26T00:36:47;96846.28;;;6.30;78.96
78741;BME280;68062;48.726;9.370;2024-02-26T00:39:15;96833.59;;;6.25;79.75
78741;BME280;68062;48.726;9.370;2024-02-26T00:41:43;96837.06;;;6.21;79.95
78741;BME280;68062;48.726;9.370;2024-02-26T00:44:11;96841.31;;;6.21;79.87
78741;BME280;68062;48.726;9.370;2024-02-26T00:46:39;96831.13;;;6.21;79.00
78741;BME280;68062;48.726;9.370;2024-02-26T00:49:08;96830.31;;;6.17;78.04
78741;BME280;68062;48.726;9.370;2024-02-26T00:51:36;96831.94;;;6.23;77.56
78741;BME280;68062;48.726;9.370;2024-02-26T00:54:04;96826.78;;;6.26;78.17
78741;BME280;68062;48.726;9.370;2024-02-26T00:56:32;96830.28;;;6.18;79.31
78741;BME280;68062;48.726;9.370;2024-02-26T00:59:00;96830.25;;;6.20;79.48
78741;BME280;68062;48.726;9.370;2024-02-26T01:01:28;96827.75;;;6.18;79.82
78741;BME280;68062;48.726;9.370;2024-02-26T01:03:56;96827.66;;;6.25;80.33
78741;BME280;68062;48.726;9.370;2024-02-26T01:06:25;96828.53;;;6.24;80.71
78741;BME280;68062;48.726;9.370;2024-02-26T01:08:53;96824.16;;;6.30;80.87
78741;BME280;68062;48.726;9.370;2024-02-26T01:11:21;96825.97;;;6.24;81.14
78741;BME280;68062;48.726;9.370;2024-02-26T01:13:49;96825.97;;;6.22;80.80
78741;BME280;68062;48.726;9.370;2024-02-26T01:16:19;96815.75;;;6.24;80.94
78741;BME280;68062;48.726;9.370;2024-02-26T01:18:47;96805.50;;;6.25;79.63
78741;BME280;68062;48.726;9.370;2024-02-26T01:21:16;96808.16;;;6.21;79.63
78741;BME280;68062;48.726;9.370;2024-02-26T01:23:45;96820.03;;;6.22;80.57
78741;BME280;68062;48.726;9.370;2024-02-26T01:26:13;96815.72;;;6.27;80.51
78741;BME280;68062;48.726;9.370;2024-02-26T01:28:41;96823.41;;;6.22;79.84
78741;BME280;68062;48.726;9.370;2024-02-26T01:31:10;96820.91;;;6.21;80.36
78741;BME280;68062;48.726;9.370;2024-02-26T01:33:37;96817.53;;;6.18;81.01
78741;BME280;68062;48.726;9.370;2024-02-26T01:36:06;96814.97;;;6.18;80.30
78741;BME280;68062;48.726;9.370;2024-02-26T01:38:34;96811.66;;;6.13;80.75
78741;BME280;68062;48.726;9.370;2024-02-26T01:41:03;96810.69;;;6.21;79.57
78741;BME280;68062;48.726;9.370;2024-02-26T01:43:31;96817.59;;;6.15;79.86
78741;BME280;68062;48.726;9.370;2024-02-26T01:45:59;96799.72;;;6.15;81.13
78741;BME280;68062;48.726;9.370;2024-02-26T01:48:27;96825.81;;;6.33;78.41
78741;BME280;68062;48.726;9.370;2024-02-26T01:50:54;96829.09;;;6.40;77.86
78741;BME280;68062;48.726;9.370;2024-02-26T01:53:22;96814.75;;;6.34;77.13
78741;BME280;68062;48.726;9.370;2024-02-26T01:55:50;96845.25;;;6.42;77.91
78741;BME280;68062;48.726;9.370;2024-02-26T01:58:20;96855.59;;;6.32;78.48
78741;BME280;68062;48.726;9.370;2024-02-26T02:00:48;96866.66;;;6.33;78.42
78741;BME280;68062;48.726;9.370;2024-02-26T02:03:16;96857.31;;;6.32;77.74
78741;BME280;68062;48.726;9.370;2024-02-26T02:05:44;96862.56;;;6.23;78.46
78741;BME280;68062;48.726;9.370;2024-02-26T02:08:13;96858.34;;;6.20;79.46
78741;BME280;68062;48.726;9.370;2024-02-26T02:10:41;96850.53;;;6.31;77.14
78741;BME280;68062;48.726;9.370;2024-02-26T02:13:10;96865.81;;;6.32;77.65
78741;BME280;68062;48.726;9.370;2024-02-26T02:15:39;96857.97;;;6.45;76.76
78741;BME280;68062;48.726;9.370;2024-02-26T02:18:07;96841.19;;;6.30;76.24
78741;BME280;68062;48.726;9.370;2024-02-26T02:20:36;96874.28;;;6.35;77.53
78741;BME280;68062;48.726;9.370;2024-02-26T02:23:04;96858.28;;;6.23;78.60
78741;BME280;68062;48.726;9.370;2024-02-26T02:25:32;96895.72;;;6.26;79.83
78741;BME280;68062;48.726;9.370;2024-02-26T02:28:00;96873.41;;;6.36;78.44
78741;BME280;68062;48.726;9.370;2024-02-26T02:30:29;96846.47;;;6.17;76.63
78741;BME280;68062;48.726;9.370;2024-02-26T02:32:59;96889.59;;;6.36;77.25
78741;BME280;68062;48.726;9.370;2024-02-26T02:35:28;96885.44;;;6.29;78.62
78741;BME280;68062;48.726;9.370;2024-02-26T02:37:57;96873.31;;;6.43;79.69
78741;BME280;68062;48.726;9.370;2024-02-26T02:40:25;96852.03;;;6.44;78.20
78741;BME280;68062;48.726;9.370;2024-02-26T02:42:53;96855.09;;;6.63;74.14
78741;BME280;68062;48.726;9.370;2024-02-26T02:45:21;96838.09;;;6.62;73.50
78741;BME280;68062;48.726;9.370;2024-02-26T02:47:49;96855.19;;;6.59;74.38
78741;BME280;68062;48.726;9.370;2024-02-26T02:50:17;96859.63;;;6.47;76.34
78741;BME280;68062;48.726;9.370;2024-02-26T02:52:45;96872.53;;;6.38;76.87
78741;BME280;68062;48.726;9.370;2024-02-26T02:55:15;96877.72;;;6.33;77.27
78741;BME280;68062;48.726;9.370;2024-02-26T02:57:43;96887.00;;;6.39;78.58
78741;BME280;68062;48.726;9.370;2024-02-26T03:00:12;96878.44;;;6.42;78.02
78741;BME280;68062;48.726;9.370;2024-02-26T03:02:40;96886.22;;;6.34;78.60
78741;BME280;68062;48.726;9.370;2024-02-26T03:05:09;96902.47;;;6.30;79.01
78741;BME280;68062;48.726;9.370;2024-02-26T03:07:37;96891.28;;;6.36;79.45
78741;BME280;68062;48.726;9.370;2024-02-26T03:10:06;96885.22;;;6.44;79.25
78741;BME280;68062;48.726;9.370;2024-02-26T03:12:36;96868.84;;;6.56;79.07
78741;BME280;68062;48.726;9.370;2024-02-26T03:15:04;96865.91;;;6.28;78.94
78741;BME280;68062;48.726;9.370;2024-02-26T03:17:32;96876.03;;;6.32;79.66
78741;BME280;68062;48.726;9.370;2024-02-26T03:20:00;96885.44;;;6.29;80.34
78741;BME280;68062;48.726;9.370;2024-02-26T03:22:30;96887.97;;;6.30;80.45
78741;BME280;68062;48.726;9.370;2024-02-26T03:24:58;96886.31;;;6.28;81.19
78741;BME280;68062;48.726;9.370;2024-02-26T03:27:26;96879.47;;;6.30;80.48
78741;BME280;68062;48.726;9.370;2024-02-26T03:29:55;96880.44;;;6.23;80.97
78741;BME280;68062;48.726;9.370;2024-02-26T03:32:23;96862.63;;;6.18;82.26
78741;BME280;68062;48.726;9.370;2024-02-26T03:34:51;96873.69;;;6.18;82.79
78741;BME280;68062;48.726;9.370;2024-02-26T03:37:21;96864.31;;;6.19;82.98
78741;BME280;68062;48.726;9.370;2024-02-26T03:39:49;96876.19;;;6.20;83.26
78741;BME280;68062;48.726;9.370;2024-02-26T03:42:16;96870.91;;;6.34;81.96
78741;BME280;68062;48.726;9.370;2024-02-26T03:44:44;96862.38;;;6.35;82.38
78741;BME280;68062;48.726;9.370;2024-02-26T03:47:13;96850.44;;;6.36;83.31
78741;BME280;68062;48.726;9.370;2024-02-26T03:49:41;96852.38;;;6.21;83.45
78741;BME280;68062;48.726;9.370;2024-02-26T03:52:09;96854.09;;;6.21;84.33
78741;BME280;68062;48.726;9.370;2024-02-26T03:54:37;96824.59;;;6.01;84.97
78741;BME280;68062;48.726;9.370;2024-02-26T03:57:05;96853.22;;;6.22;85.64
78741;BME280;68062;48.726;9.370;2024-02-26T03:59:33;96861.75;;;6.21;86.33
78741;BME280;68062;48.726;9.370;2024-02-26T04:02:01;96866.09;;;6.14;87.18
78741;BME280;68062;48.726;9.370;2024-02-26T04:04:33;96859.44;;;6.03;87.77
78741;BME280;68062;48.726;9.370;2024-02-26T04:07:04;96856.78;;;6.11;87.57
78741;BME280;68062;48.726;9.370;2024-02-26T04:09:31;96842.09;;;6.26;86.00
78741;BME280;68062;48.726;9.370;2024-02-26T04:11:59;96837.00;;;6.26;86.21
78741;BME280;68062;48.726;9.370;2024-02-26T04:14:27;96831.03;;;6.27;86.66
78741;BME280;68062;48.726;9.370;2024-02-26T04:16:56;96828.38;;;6.33;85.21
78741;BME280;68062;48.726;9.370;2024-02-26T04:19:23;96824.94;;;6.34;83.30
78741;BME280;68062;48.726;9.370;2024-02-26T04:21:53;96814.78;;;6.31;83.08
78741;BME280;68062;48.726;9.370;2024-02-26T04:24:22;96815.75;;;6.24;82.52
78741;BME280;68062;48.726;9.370;2024-02-26T04:26:50;96827.59;;;6.26;83.29
78741;BME280;68062;48.726;9.370;2024-02-26T04:29:18;96825.97;;;6.24;82.39
78741;BME280;68062;48.726;9.370;2024-02-26T04:31:46;96815.91;;;6.14;81.47
78741;BME280;68062;48.726;9.370;2024-02-26T04:34:14;96846.31;;;6.28;80.34
78741;BME280;68062;48.726;9.370;2024-02-26T04:36:42;96840.38;;;6.26;79.92
78741;BME280;68062;48.726;9.370;2024-02-26T04:39:12;96845.47;;;6.26;79.46
78741;BME280;68062;48.726;9.370;2024-02-26T04:41:40;96856.56;;;6.25;79.48
78741;BME280;68062;48.726;9.370;2024-02-26T04:44:08;96862.19;;;6.46;78.77
78741;BME280;68062;48.726;9.370;2024-02-26T04:46:36;96863.06;;;6.45;78.39
78741;BME280;68062;48.726;9.370;2024-02-26T04:49:04;96864.94;;;6.35;76.93
78741;BME280;68062;48.726;9.370;2024-02-26T04:51:32;96848.03;;;6.28;77.47
78741;BME280;68062;48.726;9.370;2024-02-26T04:54:00;96869.22;;;6.33;78.22
78741;BME280;68062;48.726;9.370;2024-02-26T04:56:30;96862.44;;;6.30;78.88
78741;BME280;68062;48.726;9.370;2024-02-26T04:58:57;96858.19;;;6.29;79.36
78741;BME280;68062;48.726;9.370;2024-02-26T05:01:25;96848.91;;;6.27;79.15
78741;BME280;68062;48.726;9.370;2024-02-26T05:03:53;96857.28;;;6.35;80.01
78741;BME280;68062;48.726;9.370;2024-02-26T05:06:21;96852.19;;;6.33;79.39
78741;BME280;68062;48.726;9.370;2024-02-26T05:08:50;96857.28;;;6.35;79.09
78741;BME280;68062;48.726;9.370;2024-02-26T05:11:17;96856.50;;;6.30;78.77
78741;BME280;68062;48.726;9.370;2024-02-26T05:13:47;96849.66;;;6.30;79.06
78741;BME280;68062;48.726;9.370;2024-02-26T05:16:15;96847.19;;;6.26;79.54
78741;BME280;68062;48.726;9.370;2024-02-26T05:18:43;96826.97;;;6.13;79.40
78741;BME280;68062;48.726;9.370;2024-02-26T05:21:11;96834.59;;;6.16;79.70
78741;BME280;68062;48.726;9.370;2024-02-26T05:23:39;96807.56;;;6.01;79.62
78741;BME280;68062;48.726;9.370;2024-02-26T05:26:11;96849.66;;;6.32;79.60
78741;BME280;68062;48.726;9.370;2024-02-26T05:28:38;96851.34;;;6.31;78.95
78741;BME280;68062;48.726;9.370;2024-02-26T05:31:08;96842.91;;;6.28;79.52
78741;BME280;68062;48.726;9.370;2024-02-26T05:33:36;96847.19;;;6.26;79.84
78741;BME280;68062;48.726;9.370;2024-02-26T05:36:05;96845.44;;;6.31;80.16
78741;BME280;68062;48.726;9.370;2024-02-26T05:38:33;96840.38;;;6.28;81.18
78741;BME280;68062;48.726;9.370;2024-02-26T05:41:01;96847.19;;;6.26;81.57
78741;BME280;68062;48.726;9.370;2024-02-26T05:43:31;96862.63;;;6.18;82.64
78741;BME280;68062;48.726;9.370;2024-02-26T05:45:59;96868.44;;;6.28;84.13
78741;BME280;68062;48.726;9.370;2024-02-26T05:48:28;96872.78;;;6.23;84.90
78741;BME280;68062;48.726;9.370;2024-02-26T05:50:57;96860.94;;;6.18;84.82
78741;BME280;68062;48.726;9.370;2024-02-26T05:53:25;96889.91;;;6.13;85.28
78741;BME280;68062;48.726;9.370;2024-02-26T05:55:53;96896.66;;;6.18;87.21
78741;BME280;68062;48.726;9.370;2024-02-26T05:58:20;96895.06;;;6.10;89.34
78741;BME280;68062;48.726;9.370;2024-02-26T06:00:49;96838.50;;;5.77;85.13
78741;BME280;68062;48.726;9.370;2024-02-26T06:03:17;96895.78;;;6.20;84.66
78741;BME280;68062;48.726;9.370;2024-02-26T06:05:46;96894.13;;;6.17;83.36
78741;BME280;68062;48.726;9.370;2024-02-26T06:08:15;96904.44;;;6.08;83.14
78741;BME280;68062;48.726;9.370;2024-02-26T06:10:42;96882.56;;;5.88;84.28
78741;BME280;68062;48.726;9.370;2024-02-26T06:13:10;96907.09;;;6.01;86.25
78741;BME280;68062;48.726;9.370;2024-02-26T06:15:38;96908.94;;;5.88;87.37
78741;BME280;68062;48.726;9.370;2024-02-26T06:18:06;96919.84;;;6.03;87.13
78741;BME280;68062;48.726;9.370;2024-02-26T06:20:34;96912.38;;;5.84;87.48
78741;BME280;68062;48.726;9.370;2024-02-26T06:23:04;96927.81;;;5.73;89.92
78741;BME280;68062;48.726;9.370;2024-02-26T06:25:32;96923.66;;;5.66;92.14
78741;BME280;68062;48.726;9.370;2024-02-26T06:28:00;96927.13;;;5.59;92.18
78741;BME280;68062;48.726;9.370;2024-02-26T06:30:28;96922.91;;;5.55;92.22
78741;BME280;68062;48.726;9.370;2024-02-26T06:32:56;96928.84;;;5.58;93.35
78741;BME280;68062;48.726;9.370;2024-02-26T06:35:24;96928.00;;;5.59;92.62
78741;BME280;68062;48.726;9.370;2024-02-26T06:37:52;96927.09;;;5.62;92.34
78741;BME280;68062;48.726;9.370;2024-02-26T06:40:21;96915.28;;;5.55;93.93
78741;BME280;68062;48.726;9.370;2024-02-26T06:42:49;96923.72;;;5.60;93.79
78741;BME280;68062;48.726;9.370;2024-02-26T06:45:18;96935.59;;;5.61;93.79
78741;BME280;68062;48.726;9.370;2024-02-26T06:47:46;96939.09;;;5.55;93.60
78741;BME280;68062;48.726;9.370;2024-02-26T06:50:15;96944.94;;;5.64;93.31
78741;BME280;68062;48.726;9.370;2024-02-26T06:52:44;96949.28;;;5.55;94.18
78741;BME280;68062;48.726;9.370;2024-02-26T06:55:12;96953.59;;;5.50;95.39
78741;BME280;68062;48.726;9.370;2024-02-26T06:57:41;96964.47;;;5.63;95.36
78741;BME280;68062;48.726;9.370;2024-02-26T07:00:10;96963.63;;;5.64;95.07
78741;BME280;68062;48.726;9.370;2024-02-26T07:02:42;96981.41;;;5.70;95.60
78741;BME280;68062;48.726;9.370;2024-02-26T07:05:10;96981.38;;;5.75;94.40
78741;BME280;68062;48.726;9.370;2024-02-26T07:07:38;96988.81;;;5.92;94.13
78741;BME280;68062;48.726;9.370;2024-02-26T07:10:06;96992.13;;;6.03;92.97
78741;BME280;68062;48.726;9.370;2024-02-26T07:12:34;96987.81;;;6.10;91.90
78741;BME280;68062;48.726;9.370;2024-02-26T07:15:04;96990.19;;;6.23;91.55
78741;BME280;68062;48.726;9.370;2024-02-26T07:17:34;96992.69;;;6.27;91.04
78741;BME280;68062;48.726;9.370;2024-02-26T07:20:03;96990.81;;;6.40;90.21
78741;BME280;68062;48.726;9.370;2024-02-26T07:22:36;96990.69;;;6.50;89.13
78741;BME280;68062;48.726;9.370;2024-02-26T07:25:04;96987.19;;;6.57;89.01
78741;BME280;68062;48.726;9.370;2024-02-26T07:27:34;96959.28;;;6.43;88.84
78741;BME280;68062;48.726;9.370;2024-02-26T07:30:05;96996.44;;;6.64;89.49
78741;BME280;68062;48.726;9.370;2024-02-26T07:32:34;96949.88;;;6.46;89.40
78741;BME280;68062;48.726;9.370;2024-02-26T07:35:03;96990.28;;;6.77;89.15
78741;BME280;68062;48.726;9.370;2024-02-26T07:37:31;97002.25;;;6.74;89.20
78741;BME280;68062;48.726;9.370;2024-02-26T07:39:59;97010.81;;;6.71;88.98
78741;BME280;68062;48.726;9.370;2024-02-26T07:42:27;97010.03;;;6.66;88.65
78741;BME280;68062;48.726;9.370;2024-02-26T07:44:56;97010.94;;;6.63;88.41
78741;BME280;68062;48.726;9.370;2024-02-26T07:47:26;97012.56;;;6.66;88.20
78741;BME280;68062;48.726;9.370;2024-02-26T07:49:54;97016.81;;;6.67;87.54
78741;BME280;68062;48.726;9.370;2024-02-26T07:52:22;97026.22;;;6.67;86.64
78741;BME280;68062;48.726;9.370;2024-02-26T07:54:49;97027.03;;;6.69;87.13
78741;BME280;68062;48.726;9.370;2024-02-26T07:57:17;97035.41;;;6.78;87.22
78741;BME280;68062;48.726;9.370;2024-02-26T07:59:45;97023.34;;;6.88;87.36
78741;BME280;68062;48.726;9.370;2024-02-26T08:02:16;97029.09;;;7.01;86.59
78741;BME280;68062;48.726;9.370;2024-02-26T08:04:47;97027.25;;;7.11;86.08
78741;BME280;68062;48.726;9.370;2024-02-26T08:07:15;97032.19;;;7.22;85.55
78741;BME280;68062;48.726;9.370;2024-02-26T08:09:43;96982.13;;;7.09;85.13
78741;BME280;68062;48.726;9.370;2024-02-26T08:12:12;97031.06;;;7.39;84.70
78741;BME280;68062;48.726;9.370;2024-02-26T08:14:40;97029.28;;;7.44;85.40
78741;BME280;68062;48.726;9.370;2024-02-26T08:17:09;97040.22;;;7.52;85.53
78741;BME280;68062;48.726;9.370;2024-02-26T08:19:37;97046.91;;;7.59;85.36
78741;BME280;68062;48.726;9.370;2024-02-26T08:22:07;97031.34;;;7.72;84.08
78741;BME280;68062;48.726;9.370;2024-02-26T08:24:42;97027.84;;;7.77;82.84
78741;BME280;68062;48.726;9.370;2024-02-26T08:27:12;97020.81;;;7.89;81.99
78741;BME280;68062;48.726;9.370;2024-02-26T08:29:40;97019.78;;;7.96;81.88
78741;BME280;68062;48.726;9.370;2024-02-26T08:32:08;97033.34;;;8.01;80.79
78741;BME280;68062;48.726;9.370;2024-02-26T08:34:36;97010.25;;;8.04;80.30
78741;BME280;68062;48.726;9.370;2024-02-26T08:37:07;97018.72;;;8.08;79.63
78741;BME280;68062;48.726;9.370;2024-02-26T08:39:35;97017.56;;;8.24;79.57
78741;BME280;68062;48.726;9.370;2024-02-26T08:42:03;97021.56;;;8.36;79.82
78741;BME280;68062;48.726;9.370;2024-02-26T08:44:31;97012.75;;;8.51;79.59
78741;BME280;68062;48.726;9.370;2024-02-26T08:46:59;97015.88;;;8.64;78.46
78741;BME280;68062;48.726;9.370;2024-02-26T08:49:27;97019.91;;;8.76;76.96
78741;BME280;68062;48.726;9.370;2024-02-26T08:51:55;97020.66;;;8.81;77.06
78741;BME280;68062;48.726;9.370;2024-02-26T08:54:25;97015.19;;;8.95;76.30
78741;BME280;68062;48.726;9.370;2024-02-26T08:56:53;97010.69;;;9.05;74.98
78741;BME280;68062;48.726;9.370;2024-02-26T08:59:21;97015.53;;;9.18;75.08
78741;BME280;68062;48.726;9.370;2024-02-26T09:01:49;97012.63;;;9.30;72.89
78741;BME280;68062;48.726;9.370;2024-02-26T09:04:18;97010.41;;;9.51;72.48
78741;BME280;68062;48.726;9.370;2024-02-26T09:06:46;96998.16;;;9.62;70.93
78741;BME280;68062;48.726;9.370;2024-02-26T09:09:14;97003.09;;;9.70;70.11
78741;BME280;68062;48.726;9.370;2024-02-26T09:11:43;97007.03;;;9.82;69.52
78741;BME280;68062;48.726;9.370;2024-02-26T09:14:11;97011.22;;;9.86;69.59
78741;BME280;68062;48.726;9.370;2024-02-26T09:16:39;97013.94;;;9.80;69.15
78741;BME280;68062;48.726;9.370;2024-02-26T09:19:07;97006.22;;;9.81;68.18
78741;BME280;68062;48.726;9.370;2024-02-26T09:21:35;97007.72;;;9.89;68.25
78741;BME280;68062;48.726;9.370;2024-02-26T09:24:04;97005.88;;;9.94;67.38
78741;BME280;68062;48.726;9.370;2024-02-26T09:26:34;97008.28;;;10.00;67.14
78741;BME280;68062;48.726;9.370;2024-02-26T09:29:03;97017.63;;;10.02;66.00
78741;BME280;68062;48.726;9.370;2024-02-26T09:31:31;97011.47;;;10.08;65.77
78741;BME280;68062;48.726;9.370;2024-02-26T09:34:00;97009.75;;;10.09;65.37
78741;BME280;68062;48.726;9.370;2024-02-26T09:36:29;97015.41;;;10.20;65.29
78741;BME280;68062;48.726;9.370;2024-02-26T09:38:57;97025.78;;;10.17;64.69
78741;BME280;68062;48.726;9.370;2024-02-26T09:41:28;97017.84;;;9.95;64.43
78741;BME280;68062;48.726;9.370;2024-02-26T09:43:57;97025.72;;;9.87;64.45
78741;BME280;68062;48.726;9.370;2024-02-26T09:46:28;97030.13;;;9.83;64.21
78741;BME280;68062;48.726;9.370;2024-02-26T09:48:56;97025.72;;;9.89;64.88
78741;BME280;68062;48.726;9.370;2024-02-26T09:51:25;97017.16;;;9.88;65.38
78741;BME280;68062;48.726;9.370;2024-02-26T09:53:54;97033.25;;;9.95;66.13
78741;BME280;68062;48.726;9.370;2024-02-26T09:56:24;97035.72;;;9.98;66.58
78741;BME280;68062;48.726;9.370;2024-02-26T09:58:54;97026.13;;;10.05;67.01
78741;BME280;68062;48.726;9.370;2024-02-26T10:01:24;97021.53;;;10.16;67.94
78741;BME280;68062;48.726;9.370;2024-02-26T10:03:55;97014.91;;;10.40;68.56
78741;BME280;68062;48.726;9.370;2024-02-26T10:06:26;97025.00;;;10.75;67.15
78741;BME280;68062;48.726;9.370;2024-02-26T10:08:55;97020.97;;;10.95;66.64
78741;BME280;68062;48.726;9.370;2024-02-26T10:11:26;97020.50;;;11.37;65.22
78741;BME280;68062;48.726;9.370;2024-02-26T10:13:54;97022.72;;;11.73;62.43
78741;BME280;68062;48.726;9.370;2024-02-26T10:16:24;97024.66;;;11.92;60.96
78741;BME280;68062;48.726;9.370;2024-02-26T10:18:53;97028.38;;;12.09;60.04
78741;BME280;68062;48.726;9.370;2024-02-26T10:21:25;97042.50;;;12.46;57.99
78741;BME280;68062;48.726;9.370;2024-02-26T10:23:53;97050.31;;;12.20;56.18
78741;BME280;68062;48.726;9.370;2024-02-26T10:26:22;97041.03;;;12.15;56.38
78741;BME280;68062;48.726;9.370;2024-02-26T10:28:50;97051.09;;;12.46;55.87
78741;BME280;68062;48.726;9.370;2024-02-26T10:31:21;97049.00;;;12.56;54.79
78741;BME280;68062;48.726;9.370;2024-02-26T10:33:49;97052.66;;;12.27;55.62
78741;BME280;68062;48.726;9.370;2024-02-26T10:36:21;97044.19;;;12.47;55.01
78741;BME280;68062;48.726;9.370;2024-02-26T10:38:54;97031.69;;;12.82;54.43
78741;BME280;68062;48.726;9.370;2024-02-26T10:41:22;97030.06;;;13.46;53.03
78741;BME280;68062;48.726;9.370;2024-02-26T10:43:50;97026.59;;;14.08;50.72
78741;BME280;68062;48.726;9.370;2024-02-26T10:46:19;97030.69;;;14.33;51.24
78741;BME280;68062;48.726;9.370;2024-02-26T10:48:50;97015.91;;;14.36;49.75
78741;BME280;68062;48.726;9.370;2024-02-26T10:51:24;97024.81;;;14.67;49.64
78741;BME280;68062;48.726;9.370;2024-02-26T10:53:57;97034.47;;;14.83;49.29
78741;BME280;68062;48.726;9.370;2024-02-26T10:56:29;97039.88;;;15.15;48.31
78741;BME280;68062;48.726;9.370;2024-02-26T10:58:58;97041.22;;;15.41;47.77
78741;BME280;68062;48.726;9.370;2024-02-26T11:01:27;97036.13;;;15.57;47.17
78741;BME280;68062;48.726;9.370;2024-02-26T11:03:56;97041.22;;;15.41;47.12
78741;BME280;68062;48.726;9.370;2024-02-26T11:06:27;97031.63;;;15.26;47.25
78741;BME280;68062;48.726;9.370;2024-02-26T11:08:56;97039.91;;;15.33;47.19
78741;BME280;68062;48.726;9.370;2024-02-26T11:11:26;97009.88;;;15.11;47.16
78741;BME280;68062;48.726;9.370;2024-02-26T11:13:55;97028.00;;;14.74;46.91
78741;BME280;68062;48.726;9.370;2024-02-26T11:16:25;97047.06;;;14.71;46.76
78741;BME280;68062;48.726;9.370;2024-02-26T11:18:55;97043.56;;;14.73;47.30
78741;BME280;68062;48.726;9.370;2024-02-26T11:21:26;97048.28;;;14.83;46.73
78741;BME280;68062;48.726;9.370;2024-02-26T11:24:08;97039.38;;;14.89;47.65
78741;BME280;68062;48.726;9.370;2024-02-26T11:26:40;97039.31;;;14.91;47.88
78741;BME280;68062;48.726;9.370;2024-02-26T11:29:14;97031.50;;;14.73;48.29
78741;BME280;68062;48.726;9.370;2024-02-26T11:31:43;96955.88;;;13.50;49.11
78741;BME280;68062;48.726;9.370;2024-02-26T11:34:11;97039.38;;;13.92;48.80
78741;BME280;68062;48.726;9.370;2024-02-26T11:36:43;97037.03;;;13.65;50.07
78741;BME280;68062;48.726;9.370;2024-02-26T11:39:12;97042.25;;;13.63;49.60
78741;BME280;68062;48.726;9.370;2024-02-26T11:41:43;97045.88;;;13.80;49.76
78741;BME280;68062;48.726;9.370;2024-02-26T11:44:11;97045.19;;;13.97;50.35
78741;BME280;68062;48.726;9.370;2024-02-26T11:46:40;97045.50;;;13.89;48.95
78741;BME280;68062;48.726;9.370;2024-02-26T11:49:31;97056.78;;;13.45;50.20
78741;BME280;68062;48.726;9.370;2024-02-26T11:52:05;97053.94;;;13.29;50.90
78741;BME280;68062;48.726;9.370;2024-02-26T11:54:43;97052.44;;;13.46;51.31
78741;BME280;68062;48.726;9.370;2024-02-26T11:57:25;97038.50;;;13.50;50.62
78741;BME280;68062;48.726;9.370;2024-02-26T11:59:56;97044.16;;;13.60;51.44
78741;BME280;68062;48.726;9.370;2024-02-26T12:02:40;97048.34;;;13.83;49.83
78741;BME280;68062;48.726;9.370;2024-02-26T12:05:11;97049.06;;;13.87;50.79
78741;BME280;68062;48.726;9.370;2024-02-26T12:07:43;97042.28;;;14.24;49.91
78741;BME280;68062;48.726;9.370;2024-02-26T12:10:30;97036.81;;;14.70;48.56
78741;BME280;68062;48.726;9.370;2024-02-26T12:13:04;97040.16;;;15.28;47.14
78741;BME280;68062;48.726;9.370;2024-02-26T12:15:36;97035.28;;;15.74;46.41
78741;BME280;68062;48.726;9.370;2024-02-26T12:18:06;97046.25;;;16.31;45.03
78741;BME280;68062;48.726;9.370;2024-02-26T12:20:37;97056.19;;;16.72;44.44
78741;BME280;68062;48.726;9.370;2024-02-26T12:23:07;97049.44;;;17.32;42.77
78741;BME280;68062;48.726;9.370;2024-02-26T12:25:34;97049.13;;;17.69;41.32
78741;BME280;68062;48.726;9.370;2024-02-26T12:28:02;97052.44;;;18.16;40.98
78741;BME280;68062;48.726;9.370;2024-02-26T12:30:31;97049.41;;;18.38;39.54
78741;BME280;68062;48.726;9.370;2024-02-26T12:33:00;97063.66;;;18.60;39.59
78741;BME280;68062;48.726;9.370;2024-02-26T12:35:31;97061.81;;;18.62;39.35
78741;BME280;68062;48.726;9.370;2024-02-26T12:37:59;97061.38;;;18.12;39.77
78741;BME280;68062;48.726;9.370;2024-02-26T12:40:29;97059.00;;;17.93;40.02
78741;BME280;68062;48.726;9.370;2024-02-26T12:42:57;97060.53;;;17.36;40.33
78741;BME280;68062;48.726;9.370;2024-02-26T12:45:25;97064.72;;;17.23;39.74
78741;BME280;68062;48.726;9.370;2024-02-26T12:47:55;97054.06;;;17.27;39.96
78741;BME280;68062;48.726;9.370;2024-02-26T12:50:24;97061.66;;;17.46;40.44
78741;BME280;68062;48.726;9.370;2024-02-26T12:52:53;97054.84;;;17.60;39.60
78741;BME280;68062;48.726;9.370;2024-02-26T12:55:21;97058.88;;;18.11;38.77
78741;BME280;68062;48.726;9.370;2024-02-26T12:57:51;97052.41;;;18.74;37.74
78741;BME280;68062;48.726;9.370;2024-02-26T13:00:25;97056.16;;;19.39;36.95
78741;BME280;68062;48.726;9.370;2024-02-26T13:02:54;97060.16;;;19.18;35.92
78741;BME280;68062;48.726;9.370;2024-02-26T13:05:23;97065.47;;;19.02;36.89
78741;BME280;68062;48.726;9.370;2024-02-26T13:07:52;97059.88;;;19.08;37.19
78741;BME280;68062;48.726;9.370;2024-02-26T13:10:23;97062.59;;;18.92;36.41
78741;BME280;68062;48.726;9.370;2024-02-26T13:12:53;97062.63;;;18.77;37.59
78741;BME280;68062;48.726;9.370;2024-02-26T13:15:22;97064.81;;;18.27;37.37
78741;BME280;68062;48.726;9.370;2024-02-26T13:17:50;97069.53;;;18.06;38.44